createdAt,value
2018-10-02T04:00:51.890Z,9.14
2018-10-02T04:01:51.765Z,9.12
2018-10-02T04:03:44.443Z,9.20
2018-10-02T04:04:44.318Z,9.23
2018-10-02T04:06:36.988Z,9.27
2018-10-02T04:07:36.869Z,9.26
2018-10-02T04:09:29.553Z,9.27
2018-10-02T04:10:29.426Z,9.27
2018-10-02T04:12:22.102Z,9.32
2018-10-02T04:13:22.031Z,9.30
2018-10-02T04:15:15.168Z,9.39
2018-10-02T04:16:15.035Z,9.37
2018-10-02T04:18:07.705Z,9.32
2018-10-02T04:19:07.639Z,9.35
2018-10-02T04:21:00.272Z,9.37
2018-10-02T04:22:00.151Z,9.30
2018-10-02T04:23:53.328Z,9.29
2018-10-02T04:24:53.204Z,9.37
2018-10-02T04:26:45.862Z,9.39
2018-10-02T04:27:45.755Z,9.41
2018-10-02T04:29:38.431Z,9.52
2018-10-02T04:30:38.307Z,9.45
2018-10-02T04:32:30.970Z,9.44
2018-10-02T04:33:30.852Z,9.48
2018-10-02T04:35:23.537Z,9.59
2018-10-02T04:36:23.411Z,9.50
2018-10-02T04:38:16.567Z,9.59
2018-10-02T04:39:16.508Z,9.57
2018-10-02T04:41:09.134Z,9.57
2018-10-02T04:42:08.999Z,9.57
2018-10-02T04:44:01.685Z,9.56
2018-10-02T04:45:01.560Z,9.62
2018-10-02T04:46:54.297Z,9.56
2018-10-02T04:47:54.113Z,9.56
2018-10-02T04:49:46.788Z,9.60
2018-10-02T04:50:46.657Z,9.59
2018-10-02T04:52:39.324Z,9.62
2018-10-02T04:53:39.207Z,9.50
2018-10-02T04:55:32.391Z,9.52
2018-10-02T04:56:32.269Z,9.62
2018-10-02T04:58:25.021Z,9.53
2018-10-02T04:59:24.829Z,9.52
2018-10-02T05:01:17.497Z,9.52
2018-10-02T05:02:17.394Z,9.56
2018-10-02T05:04:10.569Z,9.66
2018-10-02T05:05:10.433Z,9.64
2018-10-02T05:07:03.118Z,9.70
2018-10-02T05:08:02.991Z,9.52
2018-10-02T05:09:55.673Z,9.56
2018-10-02T05:10:55.547Z,9.64
2018-10-02T05:12:48.212Z,9.67
2018-10-02T05:13:48.107Z,9.53
2018-10-02T05:15:41.130Z,9.59
2018-10-02T05:16:40.647Z,9.53
2018-10-02T05:18:33.333Z,9.57
2018-10-02T05:19:33.209Z,9.64
2018-10-02T05:21:25.881Z,9.66
2018-10-02T05:22:25.761Z,9.67
2018-10-02T05:24:18.957Z,9.56
2018-10-02T05:25:18.825Z,9.66
2018-10-02T05:27:11.580Z,9.64
2018-10-02T05:28:11.403Z,9.66
2018-10-02T05:30:04.127Z,9.60
2018-10-02T05:31:03.934Z,9.56
2018-10-02T05:32:56.645Z,9.59
2018-10-02T05:33:56.493Z,9.66
2018-10-02T05:35:49.181Z,9.62
2018-10-02T05:36:49.044Z,9.56
2018-10-02T05:38:41.728Z,9.53
2018-10-02T05:39:41.606Z,9.60
2018-10-02T05:41:34.269Z,9.64
2018-10-02T05:42:34.208Z,9.50
2018-10-02T05:44:26.838Z,9.63
2018-10-02T05:45:26.723Z,9.57
2018-10-02T05:47:19.380Z,9.60
2018-10-02T05:48:19.264Z,9.47
2018-10-02T05:50:11.941Z,9.55
2018-10-02T05:51:11.819Z,9.62
2018-10-02T05:53:04.473Z,9.60
2018-10-02T05:54:04.376Z,9.60
2018-10-02T05:55:57.077Z,9.59
2018-10-02T05:56:56.948Z,9.53
2018-10-02T05:58:50.161Z,9.53
2018-10-02T05:59:50.016Z,9.56
2018-10-02T06:01:42.724Z,9.56
2018-10-02T06:02:42.619Z,9.55
2018-10-02T06:04:35.307Z,9.56
2018-10-02T06:05:35.127Z,9.55
2018-10-02T06:07:27.799Z,9.45
2018-10-02T06:08:27.711Z,9.53
2018-10-02T06:10:20.415Z,9.60
2018-10-02T06:11:20.269Z,9.52
2018-10-02T06:13:13.001Z,9.57
2018-10-02T06:14:12.894Z,9.55
2018-10-02T06:16:05.553Z,9.53
2018-10-02T06:17:05.487Z,9.63
2018-10-02T06:18:58.619Z,9.59
2018-10-02T06:19:58.477Z,9.56
2018-10-02T06:21:51.173Z,9.60
2018-10-02T06:22:51.060Z,9.53
2018-10-02T06:24:43.794Z,9.66
2018-10-02T06:25:43.597Z,9.67
2018-10-02T06:27:36.273Z,9.74
2018-10-02T06:28:36.159Z,9.62
2018-10-02T06:30:28.955Z,9.57
2018-10-02T06:31:28.712Z,9.67
2018-10-02T06:33:21.381Z,9.67
2018-10-02T06:34:21.272Z,9.55
2018-10-02T06:36:13.970Z,9.67
2018-10-02T06:37:13.850Z,9.67
2018-10-02T06:39:06.638Z,9.72
2018-10-02T06:40:06.433Z,9.64
2018-10-02T06:41:59.107Z,9.52
2018-10-02T06:42:59.004Z,9.64
2018-10-02T06:44:51.770Z,9.66
2018-10-02T06:45:51.543Z,9.63
2018-10-02T06:47:44.269Z,9.56
2018-10-02T06:48:44.182Z,9.57
2018-10-02T06:50:36.835Z,9.56
2018-10-02T06:51:36.741Z,9.52
2018-10-02T06:53:29.393Z,9.53
2018-10-02T06:54:29.268Z,9.60
2018-10-02T06:56:22.089Z,9.66
2018-10-02T06:57:21.931Z,9.57
2018-10-02T06:59:14.598Z,9.53
2018-10-02T07:00:14.472Z,9.52
2018-10-02T07:02:07.133Z,9.56
2018-10-02T07:03:07.167Z,9.52
2018-10-02T07:04:59.704Z,9.55
2018-10-02T07:05:59.571Z,9.67
2018-10-02T07:07:52.738Z,9.63
2018-10-02T07:08:52.641Z,9.66
2018-10-02T07:10:45.304Z,9.63
2018-10-02T07:11:45.183Z,9.66
2018-10-02T07:13:37.871Z,9.72
2018-10-02T07:14:37.797Z,9.64
2018-10-02T07:16:30.407Z,9.64
2018-10-02T07:17:30.331Z,9.66
2018-10-02T07:19:22.991Z,9.78
2018-10-02T07:20:22.901Z,9.77
2018-10-02T07:22:15.523Z,9.74
2018-10-02T07:23:15.406Z,9.71
2018-10-02T07:25:08.084Z,9.77
2018-10-02T07:26:07.961Z,9.71
2018-10-02T07:28:00.795Z,9.71
2018-10-02T07:29:00.522Z,9.74
2018-10-02T07:30:53.194Z,9.81
2018-10-02T07:31:53.061Z,9.80
2018-10-02T07:33:45.818Z,9.80
2018-10-02T07:34:45.618Z,9.85
2018-10-02T07:36:38.389Z,9.82
2018-10-02T07:37:38.180Z,9.99
2018-10-02T07:39:31.357Z,9.95
2018-10-02T07:40:31.225Z,9.95
2018-10-02T07:42:23.960Z,9.98
2018-10-02T07:43:23.777Z,10.03
2018-10-02T07:45:16.460Z,10.13
2018-10-02T07:46:16.342Z,10.18
2018-10-02T07:48:09.046Z,10.25
2018-10-02T07:49:08.931Z,10.20
2018-10-02T07:51:02.145Z,10.14
2018-10-02T07:52:01.689Z,10.14
2018-10-02T07:53:54.425Z,10.17
2018-10-02T07:54:54.474Z,10.25
2018-10-02T07:56:47.011Z,10.32
2018-10-02T07:57:46.852Z,10.36
2018-10-02T07:59:39.686Z,10.49
2018-10-02T08:00:39.416Z,10.49
2018-10-02T08:02:33.559Z,10.38
2018-10-02T08:03:32.210Z,10.25
2018-10-02T08:05:24.934Z,10.32
2018-10-02T08:06:24.762Z,10.23
2018-10-02T08:08:17.458Z,10.33
2018-10-02T08:09:17.344Z,10.35
2018-10-02T08:11:10.027Z,10.28
2018-10-02T08:12:10.008Z,10.21
2018-10-02T08:14:02.575Z,10.29
2018-10-02T08:15:02.496Z,10.28
2018-10-02T08:16:55.137Z,10.32
2018-10-02T08:17:55.049Z,10.32
2018-10-02T08:19:48.089Z,10.39
2018-10-02T08:20:47.691Z,10.36
2018-10-02T08:22:40.301Z,10.36
2018-10-02T08:23:40.398Z,10.33
2018-10-02T08:25:32.858Z,10.39
2018-10-02T08:26:32.764Z,10.31
2018-10-02T08:28:25.419Z,10.23
2018-10-02T08:29:25.404Z,10.18
2018-10-02T08:31:17.958Z,10.17
2018-10-02T08:32:17.840Z,10.18
2018-10-02T08:34:10.521Z,10.23
2018-10-02T08:35:10.461Z,10.28
2018-10-02T08:37:03.063Z,10.21
2018-10-02T08:38:02.954Z,10.25
2018-10-02T08:39:55.645Z,10.20
2018-10-02T08:40:55.504Z,10.18
2018-10-02T08:42:48.179Z,10.33
2018-10-02T08:43:48.066Z,10.35
2018-10-02T08:45:40.747Z,10.33
2018-10-02T08:46:40.614Z,10.38
2018-10-02T08:48:33.288Z,10.31
2018-10-02T08:49:33.182Z,10.33
2018-10-02T08:51:25.867Z,10.36
2018-10-02T08:52:25.737Z,10.38
2018-10-02T08:54:18.423Z,10.46
2018-10-02T08:55:18.298Z,10.49
2018-10-02T08:57:10.957Z,10.41
2018-10-02T08:58:10.851Z,10.46
2018-10-02T09:00:03.528Z,10.46
2018-10-02T09:01:03.432Z,10.51
2018-10-02T09:02:56.122Z,10.51
2018-10-02T09:03:55.957Z,10.51
2018-10-02T09:05:48.640Z,10.49
2018-10-02T09:06:48.526Z,10.58
2018-10-02T09:08:41.180Z,10.52
2018-10-02T09:09:41.071Z,10.49
2018-10-02T09:11:33.761Z,10.42
2018-10-02T09:12:33.653Z,10.39
2018-10-02T09:14:26.312Z,10.18
2018-10-02T09:15:26.261Z,10.28
2018-10-02T09:17:18.850Z,10.28
2018-10-02T09:18:18.742Z,10.39
2018-10-02T09:20:11.423Z,10.36
2018-10-02T09:21:11.307Z,10.41
2018-10-02T09:23:03.963Z,10.35
2018-10-02T09:24:03.850Z,10.32
2018-10-02T09:25:56.532Z,10.35
2018-10-02T09:26:56.409Z,10.35
2018-10-02T09:28:49.086Z,10.38
2018-10-02T09:29:48.967Z,10.36
2018-10-02T09:31:41.627Z,10.49
2018-10-02T09:32:41.516Z,10.42
2018-10-02T09:34:34.198Z,10.55
2018-10-02T09:35:34.070Z,10.54
2018-10-02T09:37:26.776Z,10.55
2018-10-02T09:38:26.619Z,10.58
2018-10-02T09:40:19.307Z,10.46
2018-10-02T09:41:19.173Z,10.54
2018-10-02T09:43:12.336Z,10.57
2018-10-02T09:44:12.226Z,10.58
2018-10-02T09:46:04.963Z,10.70
2018-10-02T09:47:04.776Z,10.76
2018-10-02T09:48:57.498Z,10.83
2018-10-02T09:49:57.369Z,10.92
2018-10-02T09:51:50.081Z,10.90
2018-10-02T09:52:49.900Z,10.84
2018-10-02T09:54:42.617Z,10.83
2018-10-02T09:55:42.451Z,10.76
2018-10-02T09:57:35.119Z,10.84
2018-10-02T09:58:35.086Z,10.85
2018-10-02T10:00:27.731Z,10.92
2018-10-02T10:01:27.569Z,11.03
2018-10-02T10:03:20.231Z,11.02
2018-10-02T10:04:20.162Z,10.90
2018-10-02T10:06:12.810Z,10.92
2018-10-02T10:07:12.684Z,11.03
2018-10-02T10:09:05.350Z,10.91
2018-10-02T10:10:05.237Z,10.97
2018-10-02T10:11:57.920Z,10.90
2018-10-02T10:12:57.796Z,10.91
2018-10-02T10:14:50.477Z,10.84
2018-10-02T10:15:50.352Z,10.66
2018-10-02T10:17:43.016Z,10.69
2018-10-02T10:18:42.902Z,10.72
2018-10-02T10:20:35.593Z,10.73
2018-10-02T10:21:35.463Z,10.72
2018-10-02T10:23:28.134Z,10.84
2018-10-02T10:24:28.051Z,10.77
2018-10-02T10:26:20.711Z,10.70
2018-10-02T10:27:20.582Z,10.72
2018-10-02T10:29:13.255Z,10.83
2018-10-02T10:30:13.139Z,10.85
2018-10-02T10:32:05.821Z,10.77
2018-10-02T10:33:05.698Z,10.84
2018-10-02T10:34:58.434Z,10.59
2018-10-02T10:35:58.247Z,10.63
2018-10-02T10:37:51.417Z,10.69
2018-10-02T10:38:51.310Z,10.85
2018-10-02T10:40:44.654Z,10.91
2018-10-02T10:41:44.354Z,10.84
2018-10-02T10:43:37.022Z,10.66
2018-10-02T10:44:36.908Z,10.77
2018-10-02T10:46:29.612Z,10.90
2018-10-02T10:47:29.517Z,10.98
2018-10-02T10:49:22.133Z,10.94
2018-10-02T10:50:22.019Z,11.00
2018-10-02T10:52:14.700Z,11.08
2018-10-02T10:53:14.577Z,11.10
2018-10-02T10:55:07.267Z,11.23
2018-10-02T10:56:07.135Z,11.30
2018-10-02T10:57:59.804Z,11.45
2018-10-02T10:58:59.715Z,11.46
2018-10-02T11:00:52.378Z,11.34
2018-10-02T11:01:52.258Z,11.23
2018-10-02T11:03:44.931Z,10.87
2018-10-02T11:04:44.898Z,10.97
2018-10-02T11:06:37.661Z,10.84
2018-10-02T11:07:37.372Z,10.91
2018-10-02T11:09:30.163Z,11.09
2018-10-02T11:10:29.964Z,11.08
2018-10-02T11:12:22.642Z,11.09
2018-10-02T11:13:22.523Z,11.06
2018-10-02T11:15:15.242Z,11.16
2018-10-02T11:16:15.073Z,11.15
2018-10-02T11:18:08.740Z,11.34
2018-10-02T11:19:08.618Z,11.33
2018-10-02T11:21:01.297Z,11.33
2018-10-02T11:22:01.167Z,11.61
2018-10-02T11:23:53.842Z,11.63
2018-10-02T11:24:53.824Z,11.68
2018-10-02T11:26:46.412Z,11.66
2018-10-02T11:27:46.282Z,11.67
2018-10-02T11:29:38.958Z,11.60
2018-10-02T11:30:38.848Z,11.68
2018-10-02T11:32:31.525Z,11.66
2018-10-02T11:33:31.406Z,11.70
2018-10-02T11:35:24.090Z,11.76
2018-10-02T11:36:23.964Z,11.78
2018-10-02T11:38:16.656Z,11.86
2018-10-02T11:39:16.526Z,11.82
2018-10-02T11:41:09.214Z,11.78
2018-10-02T11:42:09.092Z,11.86
2018-10-02T11:44:01.837Z,11.98
2018-10-02T11:45:01.710Z,11.98
2018-10-02T11:46:54.330Z,11.97
2018-10-02T11:47:54.201Z,11.89
2018-10-02T11:49:46.945Z,12.07
2018-10-02T11:50:46.807Z,12.05
2018-10-02T11:52:39.449Z,12.13
2018-10-02T11:53:39.323Z,12.10
2018-10-02T11:55:32.041Z,12.10
2018-10-02T11:56:31.883Z,12.19
2018-10-02T11:58:24.570Z,12.15
2018-10-02T11:59:24.442Z,12.18
2018-10-02T12:01:17.248Z,12.13
2018-10-02T12:02:17.009Z,12.20
2018-10-02T12:04:09.676Z,12.31
2018-10-02T12:05:09.569Z,12.16
2018-10-02T12:07:02.258Z,12.20
2018-10-02T12:08:02.139Z,12.01
2018-10-02T12:09:54.878Z,11.88
2018-10-02T12:10:54.723Z,12.05
2018-10-02T12:12:47.505Z,12.13
2018-10-02T12:13:47.438Z,12.15
2018-10-02T12:15:39.990Z,12.15
2018-10-02T12:16:39.886Z,12.18
2018-10-02T12:18:32.590Z,12.13
2018-10-02T12:19:32.493Z,12.19
2018-10-02T12:21:25.211Z,12.23
2018-10-02T12:22:25.045Z,12.23
2018-10-02T12:24:17.775Z,12.29
2018-10-02T12:25:17.657Z,12.31
2018-10-02T12:27:10.349Z,12.19
2018-10-02T12:28:10.227Z,12.18
2018-10-02T12:30:02.910Z,12.33
2018-10-02T12:31:02.766Z,12.34
2018-10-02T12:32:55.477Z,12.58
2018-10-02T12:33:55.354Z,12.56
2018-10-02T12:35:48.042Z,12.65
2018-10-02T12:36:47.995Z,12.55
2018-10-02T12:38:40.778Z,12.48
2018-10-02T12:39:40.501Z,12.56
2018-10-02T12:41:33.308Z,12.63
2018-10-02T12:42:33.110Z,12.83
2018-10-02T12:44:26.281Z,12.86
2018-10-02T12:45:26.160Z,12.94
2018-10-02T12:47:18.852Z,13.01
2018-10-02T12:48:18.726Z,12.96
2018-10-02T12:50:11.396Z,12.95
2018-10-02T12:51:11.281Z,13.06
2018-10-02T12:53:04.035Z,13.13
2018-10-02T12:54:03.844Z,13.37
2018-10-02T12:55:56.531Z,13.51
2018-10-02T12:56:56.407Z,13.63
2018-10-02T12:58:49.081Z,13.58
2018-10-02T12:59:48.980Z,13.69
2018-10-02T13:01:41.671Z,13.53
2018-10-02T13:02:41.543Z,13.37
2018-10-02T13:04:34.210Z,13.35
2018-10-02T13:05:34.115Z,13.42
2018-10-02T13:07:26.794Z,13.62
2018-10-02T13:08:26.668Z,13.40
2018-10-02T13:10:19.348Z,13.50
2018-10-02T13:11:19.233Z,13.39
2018-10-02T13:13:11.984Z,13.32
2018-10-02T13:14:11.797Z,13.40
2018-10-02T13:16:04.489Z,13.45
2018-10-02T13:17:04.359Z,13.62
2018-10-02T13:18:57.038Z,13.50
2018-10-02T13:19:56.933Z,13.57
2018-10-02T13:21:49.614Z,13.58
2018-10-02T13:22:49.495Z,13.57
2018-10-02T13:24:42.171Z,13.44
2018-10-02T13:25:42.059Z,13.39
2018-10-02T13:27:34.746Z,13.35
2018-10-02T13:28:34.618Z,13.37
2018-10-02T13:30:27.303Z,13.32
2018-10-02T13:31:27.189Z,13.40
2018-10-02T13:33:19.875Z,13.58
2018-10-02T13:34:19.750Z,13.58
2018-10-02T13:36:12.461Z,13.65
2018-10-02T13:37:12.338Z,13.73
2018-10-02T13:39:05.005Z,13.79
2018-10-02T13:40:04.895Z,13.79
2018-10-02T13:41:57.594Z,13.57
2018-10-02T13:42:57.457Z,13.63
2018-10-02T13:44:50.165Z,13.39
2018-10-02T13:45:50.022Z,13.53
2018-10-02T13:47:42.706Z,13.45
2018-10-02T13:48:42.585Z,13.57
2018-10-02T13:50:35.288Z,13.63
2018-10-02T13:51:35.147Z,13.70
2018-10-02T13:53:27.833Z,13.84
2018-10-02T13:54:27.709Z,13.81
2018-10-02T13:56:20.390Z,13.81
2018-10-02T13:57:20.271Z,13.94
2018-10-02T13:59:12.942Z,14.15
2018-10-02T14:00:12.827Z,14.36
2018-10-02T14:02:05.519Z,14.33
2018-10-02T14:03:05.393Z,14.30
2018-10-02T14:04:58.071Z,14.20
2018-10-02T14:05:57.964Z,14.21
2018-10-02T14:07:50.644Z,14.15
2018-10-02T14:08:50.523Z,14.16
2018-10-02T14:10:43.195Z,14.44
2018-10-02T14:11:43.092Z,14.44
2018-10-02T14:13:35.778Z,14.36
2018-10-02T14:14:35.652Z,14.38
2018-10-02T14:16:28.342Z,14.39
2018-10-02T14:17:28.220Z,14.44
2018-10-02T14:19:20.891Z,14.31
2018-10-02T14:20:20.785Z,14.34
2018-10-02T14:22:13.487Z,14.30
2018-10-02T14:23:13.361Z,14.26
2018-10-02T14:25:06.033Z,14.26
2018-10-02T14:26:05.922Z,14.33
2018-10-02T14:27:58.691Z,14.20
2018-10-02T14:28:58.484Z,14.23
2018-10-02T14:30:51.184Z,14.12
2018-10-02T14:31:51.056Z,14.16
2018-10-02T14:33:43.731Z,14.13
2018-10-02T14:34:43.624Z,14.21
2018-10-02T14:36:36.367Z,14.36
2018-10-02T14:37:36.187Z,14.46
2018-10-02T14:39:28.864Z,14.34
2018-10-02T14:40:28.819Z,14.38
2018-10-02T14:42:21.437Z,14.42
2018-10-02T14:43:21.384Z,14.41
2018-10-02T14:45:13.997Z,14.63
2018-10-02T14:46:13.888Z,14.69
2018-10-02T14:48:06.585Z,14.80
2018-10-02T14:49:06.460Z,14.83
2018-10-02T14:50:59.147Z,14.83
2018-10-02T14:51:59.035Z,14.74
2018-10-02T14:53:51.780Z,14.79
2018-10-02T14:54:51.594Z,14.75
2018-10-02T14:56:44.278Z,14.61
2018-10-02T14:57:44.157Z,14.53
2018-10-02T14:59:36.829Z,14.44
2018-10-02T15:00:36.714Z,14.45
2018-10-02T15:02:29.409Z,14.46
2018-10-02T15:03:29.286Z,14.46
2018-10-02T15:05:21.956Z,14.63
2018-10-02T15:06:21.842Z,14.64
2018-10-02T15:08:14.533Z,14.80
2018-10-02T15:09:14.408Z,14.82
2018-10-02T15:11:07.092Z,14.90
2018-10-02T15:12:07.042Z,14.90
2018-10-02T15:13:59.639Z,14.94
2018-10-02T15:14:59.535Z,15.00
2018-10-02T15:16:52.225Z,14.89
2018-10-02T15:17:52.158Z,14.90
2018-10-02T15:19:44.771Z,14.90
2018-10-02T15:20:44.669Z,14.77
2018-10-02T15:22:37.350Z,14.80
2018-10-02T15:23:37.238Z,14.83
2018-10-02T15:25:29.899Z,14.93
2018-10-02T15:26:29.791Z,14.95
2018-10-02T15:28:22.487Z,14.89
2018-10-02T15:29:22.352Z,14.93
2018-10-02T15:31:15.106Z,15.05
2018-10-02T15:32:14.921Z,15.02
2018-10-02T15:34:07.591Z,15.13
2018-10-02T15:35:07.487Z,15.05
2018-10-02T15:37:00.679Z,15.10
2018-10-02T15:38:00.614Z,15.23
2018-10-02T15:39:53.233Z,15.19
2018-10-02T15:40:53.126Z,15.22
2018-10-02T15:42:45.816Z,15.41
2018-10-02T15:43:45.692Z,15.52
2018-10-02T15:45:38.362Z,15.37
2018-10-02T15:46:38.259Z,15.37
2018-10-02T15:48:30.947Z,15.16
2018-10-02T15:49:30.828Z,15.18
2018-10-02T15:51:23.513Z,15.12
2018-10-02T15:52:23.393Z,15.04
2018-10-02T15:54:16.080Z,15.12
2018-10-02T15:55:15.962Z,15.01
2018-10-02T15:57:08.645Z,15.02
2018-10-02T15:58:08.643Z,15.10
2018-10-02T16:00:01.190Z,15.10
2018-10-02T16:01:01.088Z,15.18
2018-10-02T16:02:53.780Z,15.19
2018-10-02T16:03:53.662Z,15.26
2018-10-02T16:05:46.325Z,15.18
2018-10-02T16:06:46.219Z,15.15
2018-10-02T16:08:38.909Z,15.22
2018-10-02T16:09:38.789Z,15.12
2018-10-02T16:11:31.564Z,15.15
2018-10-02T16:12:31.355Z,15.05
2018-10-02T16:14:24.039Z,15.01
2018-10-02T16:15:23.928Z,15.04
2018-10-02T16:17:17.108Z,14.87
2018-10-02T16:18:17.012Z,14.95
2018-10-02T16:20:09.660Z,14.90
2018-10-02T16:21:09.558Z,14.95
2018-10-02T16:23:02.245Z,14.86
2018-10-02T16:24:02.130Z,14.86
2018-10-02T16:25:54.795Z,14.87
2018-10-02T16:26:54.706Z,14.94
2018-10-02T16:28:47.378Z,14.94
2018-10-02T16:29:47.251Z,14.95
2018-10-02T16:31:39.934Z,14.98
2018-10-02T16:32:39.821Z,14.94
2018-10-02T16:34:32.537Z,14.98
2018-10-02T16:35:32.380Z,14.98
2018-10-02T16:37:26.560Z,15.01
2018-10-02T16:38:26.429Z,15.00
2018-10-02T16:40:19.119Z,15.01
2018-10-02T16:41:19.003Z,14.98
2018-10-02T16:43:12.691Z,15.02
2018-10-02T16:44:12.568Z,14.98
2018-10-02T16:46:05.413Z,15.05
2018-10-02T16:47:05.206Z,15.04
2018-10-02T16:48:57.811Z,15.04
2018-10-02T16:49:57.716Z,15.00
2018-10-02T16:51:50.398Z,15.01
2018-10-02T16:52:50.268Z,14.94
2018-10-02T16:54:42.943Z,14.94
2018-10-02T16:55:42.839Z,14.90
2018-10-02T16:57:35.515Z,14.85
2018-10-02T16:58:35.394Z,14.75
2018-10-02T17:00:28.066Z,14.66
2018-10-02T17:01:27.957Z,14.64
2018-10-02T17:03:20.652Z,14.64
2018-10-02T17:04:20.526Z,14.57
2018-10-02T17:06:13.216Z,14.51
2018-10-02T17:07:13.092Z,14.59
2018-10-02T17:09:05.769Z,14.52
2018-10-02T17:10:05.665Z,14.57
2018-10-02T17:11:58.355Z,14.52
2018-10-02T17:12:58.223Z,14.48
2018-10-02T17:14:50.898Z,14.52
2018-10-02T17:15:50.792Z,14.51
2018-10-02T17:17:43.473Z,14.48
2018-10-02T17:18:43.352Z,14.44
2018-10-02T17:20:36.024Z,14.45
2018-10-02T17:21:35.915Z,14.44
2018-10-02T17:23:28.649Z,14.41
2018-10-02T17:24:28.472Z,14.46
2018-10-02T17:26:21.155Z,14.31
2018-10-02T17:27:21.034Z,14.28
2018-10-02T17:29:13.707Z,14.26
2018-10-02T17:30:13.595Z,14.23
2018-10-02T17:32:06.285Z,14.26
2018-10-02T17:33:06.467Z,14.19
2018-10-02T17:34:58.836Z,14.08
2018-10-02T17:35:58.714Z,14.02
2018-10-02T17:37:51.403Z,13.99
2018-10-02T17:38:51.400Z,14.05
2018-10-02T17:40:43.970Z,14.02
2018-10-02T17:41:43.832Z,13.94
2018-10-02T17:43:36.516Z,13.94
2018-10-02T17:44:36.391Z,13.94
2018-10-02T17:46:29.077Z,14.08
2018-10-02T17:47:28.952Z,13.99
2018-10-02T17:49:21.621Z,14.01
2018-10-02T17:50:21.508Z,14.02
2018-10-02T17:52:14.689Z,14.01
2018-10-02T17:53:14.564Z,13.97
2018-10-02T17:55:07.729Z,13.99
2018-10-02T17:56:07.619Z,13.99
2018-10-02T17:58:00.313Z,13.94
2018-10-02T17:59:00.181Z,13.97
2018-10-02T18:00:52.865Z,13.95
2018-10-02T18:01:52.756Z,13.99
2018-10-02T18:03:45.435Z,13.88
2018-10-02T18:04:45.310Z,13.95
2018-10-02T18:06:37.990Z,13.91
2018-10-02T18:07:37.876Z,13.81
2018-10-02T18:09:30.534Z,13.84
2018-10-02T18:10:30.427Z,13.88
2018-10-02T18:12:23.109Z,13.84
2018-10-02T18:13:22.983Z,13.81
2018-10-02T18:15:15.675Z,13.83
2018-10-02T18:16:15.615Z,13.78
2018-10-02T18:18:08.279Z,13.66
2018-10-02T18:19:08.122Z,13.68
2018-10-02T18:21:00.993Z,13.62
2018-10-02T18:22:00.885Z,13.55
2018-10-02T18:23:53.589Z,13.70
2018-10-02T18:24:53.461Z,13.58
2018-10-02T18:26:46.147Z,13.62
2018-10-02T18:27:46.009Z,13.57
2018-10-02T18:29:38.686Z,13.51
2018-10-02T18:30:38.568Z,13.47
2018-10-02T18:32:31.256Z,13.60
2018-10-02T18:33:31.139Z,13.51
2018-10-02T18:35:23.817Z,13.51
2018-10-02T18:36:23.701Z,13.44
2018-10-02T18:38:16.813Z,13.44
2018-10-02T18:39:16.655Z,13.44
2018-10-02T18:41:09.326Z,13.47
2018-10-02T18:42:09.221Z,13.42
2018-10-02T18:44:01.903Z,13.50
2018-10-02T18:45:01.779Z,13.40
2018-10-02T18:46:54.452Z,13.45
2018-10-02T18:47:54.348Z,13.40
2018-10-02T18:49:47.016Z,13.35
2018-10-02T18:50:46.902Z,13.24
2018-10-02T18:52:39.593Z,13.16
2018-10-02T18:53:39.478Z,13.17
2018-10-02T18:55:32.144Z,13.07
2018-10-02T18:56:32.127Z,13.09
2018-10-02T18:58:24.725Z,12.96
2018-10-02T18:59:24.600Z,12.89
2018-10-02T19:01:17.354Z,12.88
2018-10-02T19:02:17.266Z,12.95
2018-10-02T19:04:10.548Z,12.84
2018-10-02T19:05:10.070Z,12.81
2018-10-02T19:07:02.564Z,12.84
2018-10-02T19:08:02.599Z,12.86
2018-10-02T19:09:55.357Z,12.99
2018-10-02T19:10:55.230Z,12.94
2018-10-02T19:12:48.414Z,12.96
2018-10-02T19:13:48.281Z,12.96
2018-10-02T19:15:40.952Z,12.96
2018-10-02T19:16:40.837Z,12.86
2018-10-02T19:18:33.525Z,12.86
2018-10-02T19:19:33.401Z,12.88
2018-10-02T19:21:26.093Z,12.81
2018-10-02T19:22:26.504Z,12.84
2018-10-02T19:24:18.637Z,12.84
2018-10-02T19:25:18.518Z,12.86
2018-10-02T19:27:11.544Z,12.80
2018-10-02T19:28:11.079Z,12.76
2018-10-02T19:30:03.739Z,12.80
2018-10-02T19:31:03.629Z,12.74
2018-10-02T19:32:56.320Z,12.63
2018-10-02T19:33:56.188Z,12.65
2018-10-02T19:35:49.006Z,12.63
2018-10-02T19:36:48.752Z,12.62
2018-10-02T19:38:41.436Z,12.65
2018-10-02T19:39:41.308Z,12.65
2018-10-02T19:41:33.978Z,12.63
2018-10-02T19:42:33.863Z,12.69
2018-10-02T19:44:26.674Z,12.58
2018-10-02T19:45:26.424Z,12.59
2018-10-02T19:47:19.163Z,12.58
2018-10-02T19:48:18.996Z,12.52
2018-10-02T19:50:11.648Z,12.53
2018-10-02T19:51:11.536Z,12.58
2018-10-02T19:53:04.228Z,12.48
2018-10-02T19:54:04.100Z,12.44
2018-10-02T19:55:56.770Z,12.43
2018-10-02T19:56:56.652Z,12.41
2018-10-02T19:58:49.349Z,12.47
2018-10-02T19:59:49.214Z,12.37
2018-10-02T20:01:41.909Z,12.43
2018-10-02T20:02:41.775Z,12.34
2018-10-02T20:04:34.464Z,12.34
2018-10-02T20:05:34.329Z,12.36
2018-10-02T20:07:28.557Z,12.33
2018-10-02T20:08:28.394Z,12.40
2018-10-02T20:10:21.053Z,12.25
2018-10-02T20:11:20.964Z,12.26
2018-10-02T20:13:13.874Z,12.38
2018-10-02T20:14:13.567Z,12.36
2018-10-02T20:16:06.230Z,12.40
2018-10-02T20:17:06.118Z,12.48
2018-10-02T20:18:58.797Z,12.51
2018-10-02T20:19:58.675Z,12.48
2018-10-02T20:21:51.344Z,12.48
2018-10-02T20:22:51.239Z,12.48
2018-10-02T20:24:43.923Z,12.62
2018-10-02T20:25:43.792Z,12.63
2018-10-02T20:27:36.468Z,12.65
2018-10-02T20:28:36.343Z,12.63
2018-10-02T20:30:29.010Z,12.71
2018-10-02T20:31:28.903Z,12.76
2018-10-02T20:33:21.582Z,12.77
2018-10-02T20:34:21.454Z,12.78
2018-10-02T20:36:14.123Z,12.80
2018-10-02T20:37:14.009Z,12.73
2018-10-02T20:39:07.697Z,12.86
2018-10-02T20:40:07.565Z,12.81
2018-10-02T20:42:00.227Z,12.78
2018-10-02T20:43:00.117Z,12.71
2018-10-02T20:44:52.810Z,12.86
2018-10-02T20:45:52.676Z,12.80
2018-10-02T20:47:46.353Z,12.74
2018-10-02T20:48:46.226Z,12.84
2018-10-02T20:50:38.895Z,12.86
2018-10-02T20:51:38.788Z,12.91
2018-10-02T20:53:32.467Z,12.77
2018-10-02T20:54:32.406Z,12.76
2018-10-02T20:56:25.005Z,12.63
2018-10-02T20:57:24.897Z,12.71
2018-10-02T20:59:17.581Z,12.63
2018-10-02T21:00:17.452Z,12.62
2018-10-02T21:02:10.123Z,12.51
2018-10-02T21:03:10.015Z,12.53
2018-10-02T21:05:02.697Z,12.45
2018-10-02T21:06:02.573Z,12.44
2018-10-02T21:07:55.282Z,12.45
2018-10-02T21:08:55.126Z,12.62
2018-10-02T21:10:47.790Z,12.55
2018-10-02T21:11:47.691Z,12.55
2018-10-02T21:13:40.377Z,12.56
2018-10-02T21:14:40.244Z,12.59
2018-10-02T21:16:33.910Z,12.62
2018-10-02T21:17:33.804Z,12.56
2018-10-02T21:19:26.476Z,12.53
2018-10-02T21:20:26.358Z,12.63
2018-10-02T21:22:19.034Z,12.56
2018-10-02T21:23:18.908Z,12.65
2018-10-02T21:25:11.599Z,12.58
2018-10-02T21:26:11.472Z,12.58
2018-10-02T21:28:04.152Z,12.61
2018-10-02T21:29:04.124Z,12.55
2018-10-02T21:30:56.703Z,12.55
2018-10-02T21:31:56.584Z,12.56
2018-10-02T21:33:49.272Z,12.47
2018-10-02T21:34:49.143Z,12.53
2018-10-02T21:36:41.814Z,12.53
2018-10-02T21:37:41.700Z,12.55
2018-10-02T21:39:34.877Z,12.59
2018-10-02T21:40:34.753Z,12.45
2018-10-02T21:42:27.422Z,12.45
2018-10-02T21:43:27.313Z,12.41
2018-10-02T21:45:19.995Z,12.34
2018-10-02T21:46:19.875Z,12.31
2018-10-02T21:48:12.555Z,12.38
2018-10-02T21:49:12.434Z,12.37
2018-10-02T21:51:05.099Z,12.37
2018-10-02T21:52:04.989Z,12.40
2018-10-02T21:53:57.670Z,12.31
2018-10-02T21:54:57.540Z,12.37
2018-10-02T21:56:50.206Z,12.33
2018-10-02T21:57:50.100Z,12.34
2018-10-02T21:59:42.787Z,12.29
